Time;durP1;ratioP1;P1;durP2;ratioP2;P2;SDS_P1;SDS_P2;PMS_P1;PMS_P2;Temp;Humidity;BMP_temperature;BMP_pressure;BME280_temperature;BME280_humidity;BME280_pressure;Samples;Min_cycle;Max_cycle;Signal;HPM_P1;HPM_P2
2021/12/08 00:24:09;;;;;;;76.63;20.67;;;5.20;99.90;;;;;;3411233;26;20684;-89
2021/12/08 00:27:53;;;;;;;77.22;24.90;;;5.10;99.90;;;;;;4955646;28;20233;-89
2021/12/08 00:30:18;;;;;;;73.03;20.63;;;5.10;99.90;;;;;;5045199;22;21412;-89
2021/12/08 00:33:16;;;;;;;78.65;32.72;;;5.10;99.90;;;;;;5052756;28;20254;-89
2021/12/08 00:36:30;;;;;;;;;;;;;;;;;;;;;
2021/12/08 00:39:55;;;;;;;;;;;;;;;;;;;;;
2021/12/08 00:43:28;;;;;;;;;;;;;;;;;;;;;
2021/12/08 00:46:52;;;;;;;;;;;;;;;;;;;;;
2021/12/08 00:50:02;;;;;;;95.25;69.90;;;5.10;99.90;;;;;;5003555;28;20197;-90
2021/12/08 00:57:00;;;;;;;116.10;104.45;;;5.10;99.90;;;;;;5010926;28;20178;-90
2021/12/08 02:14:36;;;;;;;153.50;141.15;;;5.30;99.90;;;;;;5204246;22;20235;-90
2021/12/08 02:17:11;;;;;;;171.68;157.70;;;5.30;99.90;;;;;;5054399;28;20174;-91
2021/12/08 02:19:46;;;;;;;172.25;159.05;;;5.30;99.90;;;;;;5046879;28;20188;-91
2021/12/08 02:22:12;;;;;;;183.90;170.45;;;5.20;99.90;;;;;;5033967;28;20161;-90
2021/12/08 02:24:40;;;;;;;207.57;192.90;;;5.30;99.90;;;;;;5035335;28;20240;-91
2021/12/08 02:27:08;;;;;;;181.77;167.85;;;5.30;99.90;;;;;;5035135;28;20180;-91
2021/12/08 02:29:47;;;;;;;138.85;127.00;;;5.30;99.90;;;;;;5033658;28;20185;-91
2021/12/08 02:48:47;;;;;;;223.00;208.02;;;5.20;99.90;;;;;;5034539;28;20160;-91
2021/12/08 02:51:22;;;;;;;170.52;157.70;;;5.20;99.90;;;;;;5034628;28;20188;-91
2021/12/08 02:53:54;;;;;;;228.73;213.60;;;5.10;99.90;;;;;;5034816;28;20160;-90
2021/12/08 02:56:20;;;;;;;184.50;170.95;;;5.10;99.90;;;;;;5033495;28;20599;-90
2021/12/08 02:58:51;;;;;;;239.13;223.57;;;5.10;99.90;;;;;;5033399;28;20204;-90
2021/12/08 03:01:17;;;;;;;205.05;191.00;;;5.10;99.90;;;;;;5033762;28;20408;-90
2021/12/08 03:03:46;;;;;;;203.27;189.30;;;5.10;99.90;;;;;;5033267;28;20169;-91
2021/12/08 03:06:25;;;;;;;180.75;167.30;;;5.10;99.90;;;;;;5033513;28;20180;-91
2021/12/08 03:08:51;;;;;;;214.88;200.10;;;5.10;99.90;;;;;;5032825;28;20253;-90
2021/12/08 03:11:20;;;;;;;206.00;191.80;;;5.20;99.90;;;;;;5033149;28;20176;-91
2021/12/08 03:14:02;;;;;;;181.65;168.00;;;5.20;99.90;;;;;;5034085;28;20188;-91
2021/12/08 03:16:31;;;;;;;211.63;196.95;;;5.20;99.90;;;;;;5034381;28;20156;-91
2021/12/08 03:18:56;;;;;;;230.23;214.93;;;5.20;99.90;;;;;;5032553;28;20176;-90
2021/12/08 03:21:30;;;;;;;186.43;172.47;;;5.30;99.90;;;;;;5034127;28;20165;-91
2021/12/08 03:26:49;;;;;;;208.73;193.90;;;5.30;99.90;;;;;;5034263;28;20164;-91
2021/12/08 03:29:25;;;;;;;180.82;167.75;;;5.30;99.90;;;;;;5032608;28;20189;-90
2021/12/08 03:32:03;;;;;;;217.18;202.40;;;5.40;99.90;;;;;;5032603;28;20195;-91
2021/12/08 03:34:30;;;;;;;183.45;170.07;;;5.30;99.90;;;;;;5034123;28;20557;-91
2021/12/08 03:36:56;;;;;;;210.90;196.25;;;5.30;99.90;;;;;;5032508;28;20642;-90
2021/12/08 03:39:25;;;;;;;172.70;159.82;;;5.30;99.90;;;;;;5032554;28;20558;-90
2021/12/08 03:41:51;;;;;;;170.68;157.77;;;5.30;99.90;;;;;;5032665;28;20173;-90
2021/12/08 03:44:22;;;;;;;174.50;161.07;;;5.30;99.90;;;;;;5032342;28;20173;-91
2021/12/08 03:46:56;;;;;;;193.57;180.02;;;5.30;99.90;;;;;;5032503;28;20177;-91
2021/12/08 03:49:25;;;;;;;194.57;180.20;;;5.30;99.90;;;;;;5032151;28;20267;-91
2021/12/08 03:52:10;;;;;;;184.35;170.43;;;5.30;99.90;;;;;;5032266;28;20196;-91
2021/12/08 03:54:39;;;;;;;168.50;155.52;;;5.30;99.90;;;;;;5031871;28;20218;-91
2021/12/08 03:57:06;;;;;;;160.48;148.00;;;5.20;99.90;;;;;;5032264;28;20169;-90
2021/12/08 03:59:35;;;;;;;160.30;147.27;;;5.30;99.90;;;;;;5033091;28;20187;-90
2021/12/08 04:02:05;;;;;;;173.55;159.95;;;5.30;99.90;;;;;;5033482;28;20161;-90
2021/12/08 04:04:52;;;;;;;167.55;154.88;;;5.30;99.90;;;;;;5032497;28;20177;-90
2021/12/08 04:07:21;;;;;;;173.85;160.80;;;5.30;99.90;;;;;;5033014;28;20230;-90
2021/12/08 04:09:50;;;;;;;191.15;177.38;;;5.30;99.90;;;;;;5032123;28;20312;-91
2021/12/08 04:12:20;;;;;;;156.10;143.73;;;5.30;99.90;;;;;;5031749;28;20692;-91
2021/12/08 04:14:59;;;;;;;157.70;145.30;;;5.30;99.90;;;;;;5033095;28;20191;-91
2021/12/08 04:17:40;;;;;;;145.02;133.05;;;5.30;99.90;;;;;;5033118;28;20145;-91
2021/12/08 04:20:37;;;;;;;142.88;130.98;;;5.30;99.90;;;;;;5033192;28;20660;-91
2021/12/08 04:23:08;;;;;;;152.45;139.85;;;5.30;99.90;;;;;;5015236;28;20263;-91
2021/12/08 04:25:44;;;;;;;156.20;143.88;;;5.30;99.90;;;;;;5033421;28;20146;-91
2021/12/08 04:28:36;;;;;;;133.55;121.85;;;5.30;99.90;;;;;;5033630;28;20190;-91
2021/12/08 04:31:07;;;;;;;167.63;154.32;;;5.30;99.90;;;;;;5023164;28;20208;-91
2021/12/08 04:33:36;;;;;;;153.35;140.60;;;5.30;99.90;;;;;;5033613;28;20264;-91
2021/12/08 05:03:34;;;;;;;135.98;124.20;;;5.30;99.90;;;;;;5033031;28;20159;-91
2021/12/08 05:08:48;;;;;;;122.80;111.18;;;5.30;99.90;;;;;;5034034;28;20158;-92
2021/12/08 05:11:47;;;;;;;113.28;101.78;;;5.30;99.90;;;;;;5034779;28;20528;-91
2021/12/08 05:14:28;;;;;;;120.78;109.18;;;5.30;99.90;;;;;;5036673;28;20185;-91
2021/12/08 05:17:31;;;;;;;127.13;115.70;;;5.30;99.90;;;;;;5035189;28;20611;-91
2021/12/08 05:20:47;;;;;;;119.22;107.45;;;5.20;99.90;;;;;;5010636;28;20200;-91
2021/12/08 05:23:36;;;;;;;116.15;104.93;;;5.20;99.90;;;;;;5035553;28;20222;-91
2021/12/08 05:26:57;;;;;;;122.82;110.80;;;5.20;99.90;;;;;;5036095;28;20196;-91
2021/12/08 05:29:49;;;;;;;111.03;100.05;;;5.10;99.90;;;;;;4973829;28;20303;-91
2021/12/08 05:32:37;;;;;;;107.47;96.57;;;5.20;99.90;;;;;;4989008;28;20209;-91
2021/12/08 05:35:09;;;;;;;101.43;90.65;;;5.10;99.90;;;;;;5036729;28;20241;-91
2021/12/08 05:37:51;;;;;;;122.75;111.40;;;5.10;99.90;;;;;;5029678;28;20184;-91
2021/12/08 05:40:42;;;;;;;118.95;107.80;;;5.10;99.90;;;;;;5036460;28;20193;-91
2021/12/08 05:43:21;;;;;;;132.68;120.50;;;5.10;99.90;;;;;;5035070;28;20219;-91
2021/12/08 05:46:02;;;;;;;113.15;102.30;;;5.10;99.90;;;;;;5034723;28;20231;-91
2021/12/08 05:48:46;;;;;;;114.53;103.22;;;5.10;99.90;;;;;;5035180;28;20168;-91
2021/12/08 05:51:34;;;;;;;110.03;99.05;;;5.10;99.90;;;;;;5035870;28;20257;-91
2021/12/08 05:54:36;;;;;;;96.28;85.60;;;5.10;99.90;;;;;;5034567;28;20169;-91
2021/12/08 05:57:43;;;;;;;113.07;101.55;;;5.10;99.90;;;;;;5034663;28;20168;-91
2021/12/08 06:00:49;;;;;;;123.30;111.40;;;5.10;99.90;;;;;;5034972;28;20601;-91
2021/12/08 06:03:22;;;;;;;102.38;91.68;;;5.10;99.90;;;;;;5035039;28;20169;-91
2021/12/08 06:07:20;;;;;;;126.15;114.32;;;5.10;99.90;;;;;;5033989;28;20606;-91
2021/12/08 06:09:45;;;;;;;114.93;103.90;;;5.10;99.90;;;;;;5024604;28;20192;-91
2021/12/08 06:13:04;;;;;;;109.13;98.18;;;5.10;99.90;;;;;;5035371;28;20233;-91
2021/12/08 06:15:20;;;;;;;124.55;112.78;;;5.10;99.90;;;;;;5027871;28;20700;-91
2021/12/08 06:18:26;;;;;;;104.07;91.72;;;5.20;99.90;;;;;;5035078;28;20172;-91
2021/12/08 06:21:12;;;;;;;118.00;106.82;;;5.20;99.90;;;;;;5032706;28;20272;-92
2021/12/08 06:23:44;;;;;;;103.70;93.05;;;5.20;99.90;;;;;;5035635;28;20190;-91
2021/12/08 06:26:44;;;;;;;125.72;113.60;;;5.20;99.90;;;;;;5035433;28;20172;-91
2021/12/08 06:32:07;;;;;;;103.55;92.30;;;5.20;99.90;;;;;;5094190;22;20242;-91
2021/12/08 06:34:53;;;;;;;103.72;93.10;;;5.30;99.90;;;;;;5055278;28;20626;-92
2021/12/08 06:38:13;;;;;;;102.38;87.68;;;5.30;99.90;;;;;;5054177;28;20166;-91
2021/12/08 06:41:04;;;;;;;94.68;83.50;;;5.30;99.90;;;;;;4976936;28;20191;-91
2021/12/08 06:43:45;;;;;;;97.80;85.65;;;5.20;99.90;;;;;;5033896;28;20177;-92
2021/12/08 06:46:27;;;;;;;108.75;97.93;;;5.20;99.90;;;;;;5032631;28;20184;-91
2021/12/08 06:49:20;;;;;;;101.25;89.63;;;5.20;99.90;;;;;;5033586;28;20252;-91
2021/12/08 06:52:16;;;;;;;114.88;103.28;;;5.20;99.90;;;;;;5033336;28;20538;-92
2021/12/08 06:58:50;;;;;;;;;;;;;;;;;;;;;
2021/12/08 07:07:46;;;;;;;;;;;;;;;;;;;;;
2021/12/08 07:10:27;;;;;;;101.63;90.80;;;5.10;99.90;;;;;;5033434;28;20679;-91
2021/12/08 07:24:10;;;;;;;94.30;74.85;;;4.90;99.90;;;;;;5012816;28;20161;-92
2021/12/08 08:21:44;;;;;;;95.53;79.78;;;5.10;99.90;;;;;;4973277;28;20210;-90
2021/12/08 08:25:19;;;;;;;126.72;114.50;;;5.20;99.90;;;;;;4972733;28;20179;-89
2021/12/08 13:10:01;;;;;;;86.28;22.05;;;7.70;1.00;;;;;;4927779;29;20228;-87
2021/12/08 13:12:50;;;;;;;73.55;20.05;;;7.60;99.90;;;;;;4901369;29;20201;-87
2021/12/08 14:33:10;;;;;;;72.80;21.85;;;7.30;1.00;;;;;;5087655;23;20317;-89
2021/12/08 14:35:39;;;;;;;71.28;16.30;;;7.30;1.00;;;;;;4973592;28;20560;-89
2021/12/08 14:38:30;;;;;;;71.40;16.85;;;7.20;99.90;;;;;;4971043;28;20175;-89
2021/12/08 14:44:43;;;;;;;68.78;11.52;;;7.10;99.90;;;;;;4974511;28;20191;-88
2021/12/08 14:47:14;;;;;;;70.85;16.45;;;7.10;1.00;;;;;;4975607;28;20179;-89
2021/12/08 14:50:38;;;;;;;73.38;17.27;;;7.10;99.90;;;;;;4975092;28;20191;-89
2021/12/08 14:53:24;;;;;;;77.72;15.35;;;7.10;1.00;;;;;;4965074;28;20214;-89
2021/12/08 14:55:50;;;;;;;86.70;15.40;;;7.00;1.00;;;;;;4974218;28;20230;-89
2021/12/08 14:58:31;;;;;;;78.13;23.00;;;7.00;99.90;;;;;;4974704;28;20576;-89
2021/12/08 15:07:10;;;;;;;71.72;18.10;;;6.90;99.90;;;;;;5004552;23;20247;-88
2021/12/08 15:14:06;;;;;;;83.40;28.98;;;6.90;99.90;;;;;;4953749;29;20605;-88
2021/12/08 15:17:12;;;;;;;71.97;11.40;;;6.80;99.90;;;;;;4919508;29;20686;-88
2021/12/08 15:20:35;;;;;;;71.32;10.73;;;6.70;1.00;;;;;;4896534;29;20269;-88
2021/12/08 15:24:00;;;;;;;71.90;14.55;;;6.60;99.90;;;;;;4940654;29;20179;-88
2021/12/08 15:27:32;;;;;;;69.90;12.50;;;6.50;99.90;;;;;;4951614;29;20219;-88
2021/12/08 15:30:21;;;;;;;;;;;;;;;;;;;;;
2021/12/08 15:33:47;;;;;;;69.13;13.10;;;6.50;99.90;;;;;;4915806;29;20614;-88
2021/12/08 15:36:32;;;;;;;73.60;14.40;;;6.50;99.90;;;;;;4903610;29;20181;-88
2021/12/08 15:42:09;;;;;;;76.55;16.70;;;6.40;99.90;;;;;;4742095;26;20206;-90
2021/12/08 15:44:55;;;;;;;77.15;15.18;;;6.40;99.90;;;;;;4974089;28;20197;-90
2021/12/08 15:47:40;;;;;;;81.15;15.48;;;6.30;99.90;;;;;;4973134;28;20170;-90
2021/12/08 15:50:47;;;;;;;82.10;18.83;;;6.20;99.90;;;;;;5054499;23;20646;-90
2021/12/08 15:53:38;;;;;;;79.55;20.70;;;6.10;99.90;;;;;;4917997;29;20212;-89
2021/12/08 15:59:04;;;;;;;80.57;26.02;;;5.90;1.00;;;;;;4975087;28;20270;-89
2021/12/08 16:02:22;;;;;;;;;;;;;;;;;;;;;
2021/12/08 16:09:20;;;;;;;84.18;23.38;;;5.70;96.30;;;;;;4963304;28;20175;-91
2021/12/08 16:12:40;;;;;;;;;;;;;;;;;;;;;
2021/12/08 16:44:45;;;;;;;77.78;24.50;;;5.20;49.10;;;;;;4845801;29;20278;-91
2021/12/08 16:51:33;;;;;;;78.13;24.25;;;5.20;65.20;;;;;;4852868;29;20588;-91
2021/12/08 17:36:08;;;;;;;;;;;;;;;;;;;;;
2021/12/08 17:51:59;;;;;;;84.72;26.38;;;4.20;54.80;;;;;;4880200;29;20225;-91
2021/12/08 17:58:05;;;;;;;83.03;27.38;;;4.10;82.40;;;;;;4956476;28;20286;-91
2021/12/08 18:01:25;;;;;;;;;;;;;;;;;;;;;
2021/12/08 18:04:44;;;;;;;77.47;12.65;;;4.10;58.40;;;;;;4921535;29;20658;-91
2021/12/08 18:08:21;;;;;;;;;;;;;;;;;;;;;
2021/12/08 18:37:34;;;;;;;;;;;;;;;;;;;;;
2021/12/08 19:01:30;;;;;;;;;;;;;;;;;;;;;
2021/12/08 19:04:35;;;;;;;;;;;;;;;;;;;;;
2021/12/08 19:22:42;;;;;;;;;;;;;;;;;;;;;
2021/12/08 19:25:33;;;;;;;83.53;24.17;;;4.40;56.50;;;;;;4869947;29;20188;-90
2021/12/08 19:31:56;;;;;;;79.53;27.95;;;4.40;99.90;;;;;;4904472;29;20197;-90
2021/12/08 19:35:32;;;;;;;;;;;;;;;;;;;;;
2021/12/08 19:38:42;;;;;;;83.07;22.50;;;4.60;47.00;;;;;;4908899;29;20686;-90
2021/12/08 19:41:37;;;;;;;82.88;26.38;;;4.60;1.00;;;;;;5157519;23;20246;-91
2021/12/08 19:44:56;;;;;;;;;;;;;;;;;;;;;
2021/12/08 19:47:58;;;;;;;74.00;19.10;;;4.70;1.00;;;;;;4959226;28;20183;-91
2021/12/08 20:08:42;;;;;;;;;;;;;;;;;;;;;
